sensor_id;sensor_type;location;lat;lon;timestamp;P1;durP1;ratioP1;P2;durP2;ratioP2
48873;SDS011;66155;46.204;5.220;2024-02-14T00:03:49;8.27;;;5.80;;
48873;SDS011;66155;46.204;5.220;2024-02-14T00:08:49;10.15;;;5.68;;
48873;SDS011;66155;46.204;5.220;2024-02-14T00:13:50;7.63;;;6.50;;
48873;SDS011;66155;46.204;5.220;2024-02-14T00:18:50;9.55;;;6.72;;
48873;SDS011;66155;46.204;5.220;2024-02-14T00:23:51;9.63;;;5.63;;
48873;SDS011;66155;46.204;5.220;2024-02-14T00:28:51;8.10;;;5.18;;
48873;SDS011;66155;46.204;5.220;2024-02-14T00:33:52;9.73;;;6.25;;
48873;SDS011;66155;46.204;5.220;2024-02-14T00:38:52;6.88;;;6.18;;
48873;SDS011;66155;46.204;5.220;2024-02-14T00:43:52;8.13;;;5.38;;
48873;SDS011;66155;46.204;5.220;2024-02-14T00:48:53;6.65;;;5.85;;
48873;SDS011;66155;46.204;5.220;2024-02-14T00:53:54;13.57;;;6.10;;
48873;SDS011;66155;46.204;5.220;2024-02-14T00:58:54;8.20;;;6.00;;
48873;SDS011;66155;46.204;5.220;2024-02-14T01:03:56;7.80;;;4.80;;
48873;SDS011;66155;46.204;5.220;2024-02-14T01:08:57;6.68;;;5.70;;
48873;SDS011;66155;46.204;5.220;2024-02-14T01:13:57;8.48;;;6.07;;
48873;SDS011;66155;46.204;5.220;2024-02-14T01:18:57;6.43;;;5.50;;
48873;SDS011;66155;46.204;5.220;2024-02-14T01:23:58;7.43;;;4.80;;
48873;SDS011;66155;46.204;5.220;2024-02-14T01:28:58;5.68;;;4.82;;
48873;SDS011;66155;46.204;5.220;2024-02-14T01:34:01;5.93;;;4.93;;
48873;SDS011;66155;46.204;5.220;2024-02-14T01:39:02;11.30;;;5.25;;
48873;SDS011;66155;46.204;5.220;2024-02-14T01:44:02;6.40;;;5.80;;
48873;SDS011;66155;46.204;5.220;2024-02-14T01:49:03;4.97;;;4.50;;
48873;SDS011;66155;46.204;5.220;2024-02-14T01:54:04;5.00;;;4.50;;
48873;SDS011;66155;46.204;5.220;2024-02-14T01:59:07;6.20;;;4.57;;
48873;SDS011;66155;46.204;5.220;2024-02-14T02:04:09;5.35;;;4.85;;
48873;SDS011;66155;46.204;5.220;2024-02-14T02:09:10;8.23;;;4.50;;
48873;SDS011;66155;46.204;5.220;2024-02-14T02:14:12;6.35;;;5.07;;
48873;SDS011;66155;46.204;5.220;2024-02-14T02:19:13;8.10;;;5.30;;
48873;SDS011;66155;46.204;5.220;2024-02-14T02:24:15;6.75;;;5.18;;
48873;SDS011;66155;46.204;5.220;2024-02-14T02:29:15;5.88;;;5.03;;
48873;SDS011;66155;46.204;5.220;2024-02-14T02:34:16;6.32;;;4.60;;
48873;SDS011;66155;46.204;5.220;2024-02-14T02:39:17;5.80;;;5.13;;
48873;SDS011;66155;46.204;5.220;2024-02-14T02:44:18;6.38;;;5.47;;
48873;SDS011;66155;46.204;5.220;2024-02-14T02:49:18;5.93;;;5.15;;
48873;SDS011;66155;46.204;5.220;2024-02-14T02:54:19;9.25;;;5.63;;
48873;SDS011;66155;46.204;5.220;2024-02-14T02:59:19;5.70;;;5.20;;
48873;SDS011;66155;46.204;5.220;2024-02-14T03:04:20;5.88;;;5.28;;
48873;SDS011;66155;46.204;5.220;2024-02-14T03:09:21;9.30;;;4.95;;
48873;SDS011;66155;46.204;5.220;2024-02-14T03:14:22;7.90;;;5.28;;
48873;SDS011;66155;46.204;5.220;2024-02-14T03:19:22;5.47;;;5.03;;
48873;SDS011;66155;46.204;5.220;2024-02-14T03:24:23;5.70;;;5.10;;
48873;SDS011;66155;46.204;5.220;2024-02-14T03:29:26;6.03;;;5.40;;
48873;SDS011;66155;46.204;5.220;2024-02-14T03:34:27;7.45;;;5.28;;
48873;SDS011;66155;46.204;5.220;2024-02-14T03:39:30;6.15;;;5.28;;
48873;SDS011;66155;46.204;5.220;2024-02-14T03:44:30;7.80;;;6.20;;
48873;SDS011;66155;46.204;5.220;2024-02-14T03:49:32;6.22;;;5.63;;
48873;SDS011;66155;46.204;5.220;2024-02-14T03:54:32;5.93;;;5.30;;
48873;SDS011;66155;46.204;5.220;2024-02-14T03:59:32;7.72;;;5.75;;
48873;SDS011;66155;46.204;5.220;2024-02-14T04:04:36;6.20;;;5.50;;
48873;SDS011;66155;46.204;5.220;2024-02-14T04:09:37;8.75;;;6.50;;
48873;SDS011;66155;46.204;5.220;2024-02-14T04:14:37;7.53;;;6.03;;
48873;SDS011;66155;46.204;5.220;2024-02-14T04:19:38;7.10;;;5.57;;
48873;SDS011;66155;46.204;5.220;2024-02-14T04:24:38;6.25;;;5.68;;
48873;SDS011;66155;46.204;5.220;2024-02-14T04:29:39;7.80;;;5.70;;
48873;SDS011;66155;46.204;5.220;2024-02-14T04:34:39;8.10;;;7.10;;
48873;SDS011;66155;46.204;5.220;2024-02-14T04:39:41;6.90;;;6.20;;
48873;SDS011;66155;46.204;5.220;2024-02-14T04:44:42;6.93;;;6.32;;
48873;SDS011;66155;46.204;5.220;2024-02-14T04:49:42;7.70;;;6.30;;
48873;SDS011;66155;46.204;5.220;2024-02-14T04:54:43;8.27;;;5.28;;
48873;SDS011;66155;46.204;5.220;2024-02-14T04:59:43;8.95;;;4.70;;
48873;SDS011;66155;46.204;5.220;2024-02-14T05:04:44;8.32;;;5.70;;
48873;SDS011;66155;46.204;5.220;2024-02-14T05:09:44;8.30;;;6.60;;
48873;SDS011;66155;46.204;5.220;2024-02-14T05:14:44;9.90;;;5.97;;
48873;SDS011;66155;46.204;5.220;2024-02-14T05:19:46;6.38;;;5.72;;
48873;SDS011;66155;46.204;5.220;2024-02-14T05:24:46;8.60;;;5.97;;
48873;SDS011;66155;46.204;5.220;2024-02-14T05:29:47;8.68;;;5.82;;
48873;SDS011;66155;46.204;5.220;2024-02-14T05:34:47;8.43;;;6.28;;
48873;SDS011;66155;46.204;5.220;2024-02-14T05:39:47;8.50;;;6.18;;
48873;SDS011;66155;46.204;5.220;2024-02-14T05:44:48;9.00;;;5.35;;
48873;SDS011;66155;46.204;5.220;2024-02-14T05:49:49;7.47;;;6.68;;
48873;SDS011;66155;46.204;5.220;2024-02-14T05:54:49;11.70;;;6.77;;
48873;SDS011;66155;46.204;5.220;2024-02-14T05:59:49;6.20;;;5.60;;
48873;SDS011;66155;46.204;5.220;2024-02-14T06:04:50;5.95;;;5.32;;
48873;SDS011;66155;46.204;5.220;2024-02-14T06:09:51;6.43;;;5.82;;
48873;SDS011;66155;46.204;5.220;2024-02-14T06:14:51;7.53;;;5.93;;
48873;SDS011;66155;46.204;5.220;2024-02-14T06:19:52;8.15;;;6.40;;
48873;SDS011;66155;46.204;5.220;2024-02-14T06:24:53;6.18;;;5.57;;
48873;SDS011;66155;46.204;5.220;2024-02-14T06:29:53;7.60;;;6.53;;
48873;SDS011;66155;46.204;5.220;2024-02-14T06:34:54;7.13;;;6.32;;
48873;SDS011;66155;46.204;5.220;2024-02-14T06:39:55;6.28;;;5.68;;
48873;SDS011;66155;46.204;5.220;2024-02-14T06:44:55;6.95;;;6.30;;
48873;SDS011;66155;46.204;5.220;2024-02-14T06:49:56;7.13;;;6.17;;
48873;SDS011;66155;46.204;5.220;2024-02-14T06:54:56;7.70;;;6.72;;
48873;SDS011;66155;46.204;5.220;2024-02-14T06:59:56;7.53;;;6.15;;
48873;SDS011;66155;46.204;5.220;2024-02-14T07:04:57;7.32;;;6.40;;
48873;SDS011;66155;46.204;5.220;2024-02-14T07:09:57;9.40;;;6.90;;
48873;SDS011;66155;46.204;5.220;2024-02-14T07:14:59;11.57;;;7.07;;
48873;SDS011;66155;46.204;5.220;2024-02-14T07:20:00;10.00;;;6.50;;
48873;SDS011;66155;46.204;5.220;2024-02-14T07:25:02;9.23;;;6.40;;
48873;SDS011;66155;46.204;5.220;2024-02-14T07:30:02;6.82;;;6.20;;
48873;SDS011;66155;46.204;5.220;2024-02-14T07:35:03;6.43;;;5.78;;
48873;SDS011;66155;46.204;5.220;2024-02-14T07:40:05;8.27;;;5.75;;
48873;SDS011;66155;46.204;5.220;2024-02-14T07:45:06;9.55;;;5.57;;
48873;SDS011;66155;46.204;5.220;2024-02-14T07:50:07;6.80;;;5.57;;
48873;SDS011;66155;46.204;5.220;2024-02-14T07:55:07;7.43;;;5.72;;
48873;SDS011;66155;46.204;5.220;2024-02-14T08:00:10;9.20;;;7.25;;
48873;SDS011;66155;46.204;5.220;2024-02-14T08:05:14;8.52;;;6.15;;
48873;SDS011;66155;46.204;5.220;2024-02-14T08:10:14;6.88;;;6.20;;
48873;SDS011;66155;46.204;5.220;2024-02-14T08:15:15;9.18;;;6.60;;
48873;SDS011;66155;46.204;5.220;2024-02-14T08:20:16;7.22;;;6.03;;
48873;SDS011;66155;46.204;5.220;2024-02-14T08:25:17;6.88;;;5.93;;
48873;SDS011;66155;46.204;5.220;2024-02-14T08:30:18;7.57;;;5.50;;
48873;SDS011;66155;46.204;5.220;2024-02-14T08:35:19;7.47;;;5.53;;
48873;SDS011;66155;46.204;5.220;2024-02-14T08:40:21;8.65;;;6.55;;
48873;SDS011;66155;46.204;5.220;2024-02-14T08:45:22;8.55;;;6.13;;
48873;SDS011;66155;46.204;5.220;2024-02-14T08:50:23;6.95;;;6.00;;
48873;SDS011;66155;46.204;5.220;2024-02-14T08:55:23;7.07;;;6.43;;
48873;SDS011;66155;46.204;5.220;2024-02-14T09:00:23;6.77;;;6.07;;
48873;SDS011;66155;46.204;5.220;2024-02-14T09:05:24;8.93;;;6.37;;
48873;SDS011;66155;46.204;5.220;2024-02-14T09:10:24;9.48;;;7.53;;
48873;SDS011;66155;46.204;5.220;2024-02-14T09:15:24;7.63;;;7.03;;
48873;SDS011;66155;46.204;5.220;2024-02-14T09:20:25;6.82;;;5.80;;
48873;SDS011;66155;46.204;5.220;2024-02-14T09:25:26;6.95;;;6.13;;
48873;SDS011;66155;46.204;5.220;2024-02-14T09:30:26;6.80;;;5.93;;
48873;SDS011;66155;46.204;5.220;2024-02-14T09:35:27;8.40;;;7.47;;
48873;SDS011;66155;46.204;5.220;2024-02-14T09:40:27;8.17;;;6.63;;
48873;SDS011;66155;46.204;5.220;2024-02-14T09:45:27;10.40;;;6.00;;
48873;SDS011;66155;46.204;5.220;2024-02-14T09:50:28;7.60;;;5.85;;
48873;SDS011;66155;46.204;5.220;2024-02-14T09:55:31;7.88;;;5.47;;
48873;SDS011;66155;46.204;5.220;2024-02-14T10:00:34;7.22;;;5.75;;
48873;SDS011;66155;46.204;5.220;2024-02-14T10:05:35;9.75;;;8.88;;
48873;SDS011;66155;46.204;5.220;2024-02-14T10:10:37;9.20;;;6.03;;
48873;SDS011;66155;46.204;5.220;2024-02-14T10:15:38;6.88;;;6.20;;
48873;SDS011;66155;46.204;5.220;2024-02-14T10:20:38;6.80;;;5.85;;
48873;SDS011;66155;46.204;5.220;2024-02-14T10:25:43;6.63;;;6.10;;
48873;SDS011;66155;46.204;5.220;2024-02-14T10:30:47;6.90;;;5.25;;
48873;SDS011;66155;46.204;5.220;2024-02-14T10:35:49;6.85;;;6.10;;
48873;SDS011;66155;46.204;5.220;2024-02-14T10:40:52;7.82;;;7.18;;
48873;SDS011;66155;46.204;5.220;2024-02-14T10:45:53;6.75;;;5.38;;
48873;SDS011;66155;46.204;5.220;2024-02-14T10:50:55;7.18;;;6.15;;
48873;SDS011;66155;46.204;5.220;2024-02-14T10:55:58;10.60;;;5.72;;
48873;SDS011;66155;46.204;5.220;2024-02-14T11:00:59;7.10;;;5.93;;
48873;SDS011;66155;46.204;5.220;2024-02-14T11:06:01;6.43;;;5.70;;
48873;SDS011;66155;46.204;5.220;2024-02-14T11:11:05;6.32;;;5.72;;
48873;SDS011;66155;46.204;5.220;2024-02-14T11:16:08;10.65;;;7.28;;
48873;SDS011;66155;46.204;5.220;2024-02-14T11:21:15;8.65;;;6.10;;
48873;SDS011;66155;46.204;5.220;2024-02-14T11:26:17;6.72;;;5.88;;
48873;SDS011;66155;46.204;5.220;2024-02-14T11:31:18;7.67;;;5.50;;
48873;SDS011;66155;46.204;5.220;2024-02-14T11:36:18;6.10;;;5.60;;
48873;SDS011;66155;46.204;5.220;2024-02-14T11:41:20;6.10;;;5.60;;
48873;SDS011;66155;46.204;5.220;2024-02-14T11:46:20;5.47;;;5.00;;
48873;SDS011;66155;46.204;5.220;2024-02-14T11:51:21;7.07;;;6.55;;
48873;SDS011;66155;46.204;5.220;2024-02-14T11:56:22;7.28;;;6.68;;
48873;SDS011;66155;46.204;5.220;2024-02-14T12:01:23;5.85;;;5.35;;
48873;SDS011;66155;46.204;5.220;2024-02-14T12:06:23;7.82;;;7.32;;
48873;SDS011;66155;46.204;5.220;2024-02-14T12:11:24;6.53;;;6.03;;
48873;SDS011;66155;46.204;5.220;2024-02-14T12:16:24;6.13;;;5.72;;
48873;SDS011;66155;46.204;5.220;2024-02-14T12:21:25;6.00;;;5.70;;
48873;SDS011;66155;46.204;5.220;2024-02-14T12:26:26;6.22;;;5.78;;
48873;SDS011;66155;46.204;5.220;2024-02-14T12:31:27;8.18;;;7.55;;
48873;SDS011;66155;46.204;5.220;2024-02-14T12:36:30;5.90;;;5.50;;
48873;SDS011;66155;46.204;5.220;2024-02-14T12:41:32;8.23;;;7.45;;
48873;SDS011;66155;46.204;5.220;2024-02-14T12:46:35;6.00;;;5.60;;
48873;SDS011;66155;46.204;5.220;2024-02-14T12:51:38;6.47;;;5.97;;
48873;SDS011;66155;46.204;5.220;2024-02-14T12:56:38;6.78;;;6.38;;
48873;SDS011;66155;46.204;5.220;2024-02-14T13:01:39;9.70;;;8.80;;
48873;SDS011;66155;46.204;5.220;2024-02-14T13:06:40;8.23;;;7.75;;
48873;SDS011;66155;46.204;5.220;2024-02-14T13:11:41;7.13;;;6.72;;
48873;SDS011;66155;46.204;5.220;2024-02-14T13:16:42;6.28;;;5.97;;
48873;SDS011;66155;46.204;5.220;2024-02-14T13:21:43;7.03;;;6.53;;
48873;SDS011;66155;46.204;5.220;2024-02-14T13:26:45;6.95;;;6.45;;
48873;SDS011;66155;46.204;5.220;2024-02-14T13:31:45;8.10;;;7.43;;
48873;SDS011;66155;46.204;5.220;2024-02-14T13:36:46;7.30;;;6.80;;
48873;SDS011;66155;46.204;5.220;2024-02-14T13:41:47;8.00;;;7.50;;
48873;SDS011;66155;46.204;5.220;2024-02-14T13:46:47;8.30;;;7.80;;
48873;SDS011;66155;46.204;5.220;2024-02-14T13:51:50;8.10;;;7.60;;
48873;SDS011;66155;46.204;5.220;2024-02-14T13:56:51;8.02;;;7.38;;
48873;SDS011;66155;46.204;5.220;2024-02-14T14:01:52;9.70;;;9.20;;
48873;SDS011;66155;46.204;5.220;2024-02-14T14:06:52;8.38;;;7.85;;
48873;SDS011;66155;46.204;5.220;2024-02-14T14:11:55;8.43;;;7.93;;
48873;SDS011;66155;46.204;5.220;2024-02-14T14:16:55;12.07;;;11.47;;
48873;SDS011;66155;46.204;5.220;2024-02-14T14:21:57;9.00;;;8.35;;
48873;SDS011;66155;46.204;5.220;2024-02-14T14:26:57;8.00;;;7.40;;
48873;SDS011;66155;46.204;5.220;2024-02-14T14:31:57;9.18;;;8.57;;
48873;SDS011;66155;46.204;5.220;2024-02-14T14:36:58;7.75;;;7.07;;
48873;SDS011;66155;46.204;5.220;2024-02-14T14:41:59;7.60;;;7.10;;
48873;SDS011;66155;46.204;5.220;2024-02-14T14:46:59;8.17;;;7.47;;
48873;SDS011;66155;46.204;5.220;2024-02-14T14:52:00;7.22;;;6.82;;
48873;SDS011;66155;46.204;5.220;2024-02-14T14:57:04;7.30;;;6.80;;
48873;SDS011;66155;46.204;5.220;2024-02-14T15:02:09;9.10;;;8.60;;
48873;SDS011;66155;46.204;5.220;2024-02-14T15:07:09;6.13;;;5.63;;
48873;SDS011;66155;46.204;5.220;2024-02-14T15:12:10;6.40;;;6.00;;
48873;SDS011;66155;46.204;5.220;2024-02-14T15:17:10;7.30;;;6.90;;
48873;SDS011;66155;46.204;5.220;2024-02-14T15:22:11;7.05;;;6.65;;
48873;SDS011;66155;46.204;5.220;2024-02-14T15:27:11;6.07;;;5.73;;
48873;SDS011;66155;46.204;5.220;2024-02-14T15:32:21;5.85;;;5.55;;
48873;SDS011;66155;46.204;5.220;2024-02-14T15:37:40;5.90;;;5.60;;
48873;SDS011;66155;46.204;5.220;2024-02-14T15:42:42;6.65;;;6.35;;
48873;SDS011;66155;46.204;5.220;2024-02-14T15:47:46;5.97;;;5.45;;
48873;SDS011;66155;46.204;5.220;2024-02-14T15:52:47;6.38;;;5.90;;
48873;SDS011;66155;46.204;5.220;2024-02-14T15:57:47;5.35;;;5.05;;
48873;SDS011;66155;46.204;5.220;2024-02-14T16:02:48;5.50;;;5.10;;
48873;SDS011;66155;46.204;5.220;2024-02-14T16:07:48;6.60;;;6.00;;
48873;SDS011;66155;46.204;5.220;2024-02-14T16:12:50;6.90;;;6.40;;
48873;SDS011;66155;46.204;5.220;2024-02-14T16:17:50;6.87;;;6.47;;
48873;SDS011;66155;46.204;5.220;2024-02-14T16:22:51;7.00;;;6.20;;
48873;SDS011;66155;46.204;5.220;2024-02-14T16:27:51;9.03;;;8.33;;
48873;SDS011;66155;46.204;5.220;2024-02-14T16:32:53;6.30;;;5.80;;
48873;SDS011;66155;46.204;5.220;2024-02-14T16:37:53;6.30;;;5.90;;
48873;SDS011;66155;46.204;5.220;2024-02-14T16:42:54;6.47;;;6.07;;
48873;SDS011;66155;46.204;5.220;2024-02-14T16:47:54;7.55;;;7.05;;
48873;SDS011;66155;46.204;5.220;2024-02-14T16:52:55;5.63;;;5.22;;
48873;SDS011;66155;46.204;5.220;2024-02-14T16:57:55;6.00;;;5.60;;
48873;SDS011;66155;46.204;5.220;2024-02-14T17:02:57;7.32;;;6.07;;
48873;SDS011;66155;46.204;5.220;2024-02-14T17:07:57;8.90;;;8.38;;
48873;SDS011;66155;46.204;5.220;2024-02-14T17:12:58;7.60;;;6.90;;
48873;SDS011;66155;46.204;5.220;2024-02-14T17:17:59;7.35;;;6.63;;
48873;SDS011;66155;46.204;5.220;2024-02-14T17:22:59;8.05;;;7.25;;
48873;SDS011;66155;46.204;5.220;2024-02-14T17:28:00;7.30;;;6.70;;
48873;SDS011;66155;46.204;5.220;2024-02-14T17:33:01;7.83;;;7.07;;
48873;SDS011;66155;46.204;5.220;2024-02-14T17:38:02;9.23;;;6.28;;
48873;SDS011;66155;46.204;5.220;2024-02-14T17:43:02;10.27;;;6.60;;
48873;SDS011;66155;46.204;5.220;2024-02-14T17:48:03;8.82;;;6.03;;
48873;SDS011;66155;46.204;5.220;2024-02-14T17:53:04;7.80;;;6.38;;
48873;SDS011;66155;46.204;5.220;2024-02-14T17:58:07;6.45;;;5.85;;
48873;SDS011;66155;46.204;5.220;2024-02-14T18:03:09;7.20;;;5.63;;
48873;SDS011;66155;46.204;5.220;2024-02-14T18:08:09;7.43;;;5.70;;
48873;SDS011;66155;46.204;5.220;2024-02-14T18:13:10;6.93;;;6.25;;
48873;SDS011;66155;46.204;5.220;2024-02-14T18:18:10;8.77;;;5.95;;
48873;SDS011;66155;46.204;5.220;2024-02-14T18:23:10;6.73;;;6.03;;
48873;SDS011;66155;46.204;5.220;2024-02-14T18:28:11;7.28;;;5.85;;
48873;SDS011;66155;46.204;5.220;2024-02-14T18:33:12;10.02;;;7.22;;
48873;SDS011;66155;46.204;5.220;2024-02-14T18:38:12;8.85;;;7.57;;
48873;SDS011;66155;46.204;5.220;2024-02-14T18:43:12;7.88;;;6.13;;
48873;SDS011;66155;46.204;5.220;2024-02-14T18:48:13;9.45;;;8.15;;
48873;SDS011;66155;46.204;5.220;2024-02-14T18:53:15;11.27;;;6.88;;
48873;SDS011;66155;46.204;5.220;2024-02-14T18:58:15;7.22;;;6.53;;
48873;SDS011;66155;46.204;5.220;2024-02-14T19:03:16;9.85;;;6.88;;
48873;SDS011;66155;46.204;5.220;2024-02-14T19:08:17;9.88;;;7.88;;
48873;SDS011;66155;46.204;5.220;2024-02-14T19:13:17;10.97;;;8.40;;
48873;SDS011;66155;46.204;5.220;2024-02-14T19:18:18;9.65;;;8.13;;
48873;SDS011;66155;46.204;5.220;2024-02-14T19:23:18;14.77;;;9.52;;
48873;SDS011;66155;46.204;5.220;2024-02-14T19:28:18;10.93;;;9.35;;
48873;SDS011;66155;46.204;5.220;2024-02-14T19:33:19;11.82;;;9.00;;
48873;SDS011;66155;46.204;5.220;2024-02-14T19:38:19;11.40;;;9.50;;
48873;SDS011;66155;46.204;5.220;2024-02-14T19:43:20;12.27;;;9.52;;
48873;SDS011;66155;46.204;5.220;2024-02-14T19:48:23;9.13;;;7.97;;
48873;SDS011;66155;46.204;5.220;2024-02-14T19:53:28;9.65;;;7.68;;
48873;SDS011;66155;46.204;5.220;2024-02-14T19:58:28;10.75;;;7.88;;
48873;SDS011;66155;46.204;5.220;2024-02-14T20:03:29;12.10;;;9.80;;
48873;SDS011;66155;46.204;5.220;2024-02-14T20:08:29;12.17;;;9.07;;
48873;SDS011;66155;46.204;5.220;2024-02-14T20:13:30;14.40;;;10.85;;
48873;SDS011;66155;46.204;5.220;2024-02-14T20:18:31;14.95;;;12.38;;
48873;SDS011;66155;46.204;5.220;2024-02-14T20:23:31;19.53;;;14.20;;
48873;SDS011;66155;46.204;5.220;2024-02-14T20:28:32;18.15;;;14.10;;
48873;SDS011;66155;46.204;5.220;2024-02-14T20:33:32;21.17;;;15.35;;
48873;SDS011;66155;46.204;5.220;2024-02-14T20:38:33;22.17;;;15.40;;
48873;SDS011;66155;46.204;5.220;2024-02-14T20:43:34;26.63;;;17.05;;
48873;SDS011;66155;46.204;5.220;2024-02-14T20:48:37;23.83;;;16.58;;
48873;SDS011;66155;46.204;5.220;2024-02-14T20:53:38;27.27;;;15.60;;
48873;SDS011;66155;46.204;5.220;2024-02-14T20:58:39;22.05;;;16.90;;
48873;SDS011;66155;46.204;5.220;2024-02-14T21:03:40;17.92;;;12.38;;
48873;SDS011;66155;46.204;5.220;2024-02-14T21:08:40;16.60;;;11.90;;
48873;SDS011;66155;46.204;5.220;2024-02-14T21:13:41;17.30;;;12.18;;
48873;SDS011;66155;46.204;5.220;2024-02-14T21:18:41;17.55;;;11.63;;
48873;SDS011;66155;46.204;5.220;2024-02-14T21:23:42;15.52;;;12.45;;
48873;SDS011;66155;46.204;5.220;2024-02-14T21:28:42;17.52;;;10.88;;
48873;SDS011;66155;46.204;5.220;2024-02-14T21:33:43;16.02;;;11.98;;
48873;SDS011;66155;46.204;5.220;2024-02-14T21:38:45;15.23;;;11.35;;
48873;SDS011;66155;46.204;5.220;2024-02-14T21:43:45;17.25;;;11.25;;
48873;SDS011;66155;46.204;5.220;2024-02-14T21:48:46;14.70;;;10.52;;
48873;SDS011;66155;46.204;5.220;2024-02-14T21:53:46;16.88;;;12.23;;
48873;SDS011;66155;46.204;5.220;2024-02-14T21:58:48;17.73;;;11.65;;
48873;SDS011;66155;46.204;5.220;2024-02-14T22:03:48;17.13;;;11.35;;
48873;SDS011;66155;46.204;5.220;2024-02-14T22:08:49;16.88;;;11.88;;
48873;SDS011;66155;46.204;5.220;2024-02-14T22:13:49;16.17;;;11.88;;
48873;SDS011;66155;46.204;5.220;2024-02-14T22:18:50;18.35;;;10.90;;
48873;SDS011;66155;46.204;5.220;2024-02-14T22:23:51;15.68;;;10.75;;
48873;SDS011;66155;46.204;5.220;2024-02-14T22:28:51;17.13;;;10.98;;
48873;SDS011;66155;46.204;5.220;2024-02-14T22:33:52;12.57;;;10.23;;
48873;SDS011;66155;46.204;5.220;2024-02-14T22:38:52;12.10;;;9.68;;
48873;SDS011;66155;46.204;5.220;2024-02-14T22:43:53;12.98;;;9.05;;
48873;SDS011;66155;46.204;5.220;2024-02-14T22:48:53;11.75;;;8.90;;
48873;SDS011;66155;46.204;5.220;2024-02-14T22:53:56;13.70;;;9.32;;
48873;SDS011;66155;46.204;5.220;2024-02-14T22:58:57;13.10;;;8.70;;
48873;SDS011;66155;46.204;5.220;2024-02-14T23:03:57;14.25;;;9.68;;
48873;SDS011;66155;46.204;5.220;2024-02-14T23:08:57;12.95;;;8.55;;
48873;SDS011;66155;46.204;5.220;2024-02-14T23:13:58;11.73;;;8.70;;
48873;SDS011;66155;46.204;5.220;2024-02-14T23:18:58;14.00;;;8.77;;
48873;SDS011;66155;46.204;5.220;2024-02-14T23:23:59;11.82;;;8.80;;
48873;SDS011;66155;46.204;5.220;2024-02-14T23:28:59;14.98;;;8.95;;
48873;SDS011;66155;46.204;5.220;2024-02-14T23:34:00;13.32;;;9.48;;
48873;SDS011;66155;46.204;5.220;2024-02-14T23:39:00;14.10;;;9.15;;
48873;SDS011;66155;46.204;5.220;2024-02-14T23:44:00;14.73;;;9.80;;
48873;SDS011;66155;46.204;5.220;2024-02-14T23:49:03;13.20;;;10.20;;
48873;SDS011;66155;46.204;5.220;2024-02-14T23:54:04;18.33;;;11.38;;
48873;SDS011;66155;46.204;5.220;2024-02-14T23:59:05;15.18;;;10.38;;
